Strona główna
METAR-TAF:

METAR-TAF

Lotnisko :

Port lotniczy Al-Wadżh

Al Wajh, Arabia Saudyjska

Szerokość geograficzna: 26-12N, Długość geograficzna: 036-28E, wysokość: 20 m

Aktualna obserwacja pogody

Raport powstał 56 minut temu, godzina 06:00 UTC
Wiatr 4 kt od północ
Temperatura 20°C
Wilgotność 64%
Ciśnienie 1015 hPa
Widzialność 10 km lub więcej
Rozproszone chmury na wysokości 4000 ft

METAR: OEWJ 130600Z 01004KT 9999 SCT040 20/13 Q1015 NOSIG

czas: 09:56 (06:56 UTC)

Prognoza

Raport powstał 7 godziny i 56 minut temu, godzina 23:00 UTC
Prognoza ważna od 13 godzina 00 UTC do 14 godzina 06 UTC
Wiatr 10 kt od północ
Widzialność: 7000 m
Mało chmury na wysokości 4000 ft
Stopniowe zmiany
od 13 godzina 06 UTC do 13 godzina 08 UTC
Wiatr 16 kt od zachodnio-północny zachód

TAF: OEWJ 122300Z 1300/1406 36010KT 7000 FEW040 BECMG 1306/1308 30016KT

Obserwacja i prognoza pogody dla ponad 4000 lotnisk (raport METAR i TAF).

Dostępne stacje oznaczono żółtymi i czerwonymi punktami na mapie.

Najedź kursorem aby zobaczyć nazwę stacji.

Kliknij aby zobaczyć obserwacje i prognozy pogody.

Aby zmienić mapę: kliknij na zielony przycisk z czarnym krzyżykiem, aby powiększyć; na zielony przycisk z myślnikiem, aby pomniejszyć; na zielone strzałki, aby przejść do map sąsiednich.


METAR-TAF: